Pindall, Arkansas
Current Conditions -  °F | °C
As of 10:53 PM on Wednesday 22 Oct 2014 (Local Time) from KHRO Reporting Station
Clear Clear  
Wind Chill: 10°   Ceiling: Unl
Heat Index: 10°   Visibility: 10mi
Dew Point:   Wind: 3mph
Humidity: 93%   Direction: 160°SSE
Pressure: 30.2"   Gusts: NA
Location:  36.07°N, 92.88°W
Report Text: KHRO 230353Z AUTO 16003KT 10SM CLR 10/09 A3020 RMK AO2 SLP222 T01000089
Loading
Personal Weather Stations






























Interactive Weather Map
Tropical Storm Tracking
New forecast layout! Learn more

10-Day Weather Forecast

Advertisements
Track Severe Weather on mobile